Time;durP1;ratioP1;P1;durP2;ratioP2;P2;SDS_P1;SDS_P2;PMS_P1;PMS_P2;Temp;Humidity;BMP_temperature;BMP_pressure;BME280_temperature;BME280_humidity;BME280_pressure;Samples;Min_cycle;Max_cycle;Signal;HPM_P1;HPM_P2
2023/10/18 00:01:05;;;;;;;;;;;;;;;10.02;100.00;95346.25;5115279;28;984;-56
2023/10/18 00:03:54;;;;;;;;;;;;;;;10.03;100.00;95346.06;5114870;28;2037;-56
2023/10/18 00:06:22;;;;;;;;;;;;;;;10.04;100.00;95350.44;5115037;28;1054;-56
2023/10/18 00:08:48;;;;;;;;;;;;;;;10.03;100.00;95346.06;5115001;28;1149;-56
2023/10/18 00:11:15;;;;;;;;;;;;;;;10.04;100.00;95346.94;5114695;28;1604;-56
2023/10/18 00:13:42;;;;;;;;;;;;;;;10.00;100.00;95350.88;5114877;28;976;-56
2023/10/18 00:16:08;;;;;;;;;;;;;;;9.92;100.00;95349.81;5114669;28;1024;-56
2023/10/18 00:18:34;;;;;;;;;;;;;;;9.96;100.00;95345.03;5114851;28;1917;-56
2023/10/18 00:21:01;;;;;;;;;;;;;;;9.96;100.00;95345.03;5114843;28;961;-56
2023/10/18 00:23:27;;;;;;;;;;;;;;;10.02;100.00;95343.56;5114502;28;1072;-56
2023/10/18 00:25:57;;;;;;;;;;;;;;;9.96;100.00;95337.00;5114691;28;952;-56
2023/10/18 00:28:23;;;;;;;;;;;;;;;9.90;100.00;95343.81;5114698;28;960;-56
2023/10/18 00:30:50;;;;;;;;;;;;;;;9.94;100.00;95345.16;5114393;28;1040;-56
2023/10/18 00:33:18;;;;;;;;;;;;;;;9.99;100.00;95346.53;5114343;28;1012;-56
2023/10/18 00:35:44;;;;;;;;;;;;;;;9.99;100.00;95343.88;5114552;28;972;-56
2023/10/18 00:38:18;;;;;;;;;;;;;;;10.03;100.00;95340.72;5114652;28;972;-56
2023/10/18 00:40:51;;;;;;;;;;;;;;;9.97;100.00;95339.50;5114615;28;1902;-56
2023/10/18 00:43:20;;;;;;;;;;;;;;;9.90;100.00;95335.78;5114210;28;1051;-56
2023/10/18 00:45:53;;;;;;;;;;;;;;;9.81;100.00;95328.69;5113951;28;1027;-56
2023/10/18 00:48:27;;;;;;;;;;;;;;;9.89;100.00;95330.59;5114123;28;1044;-56
2023/10/18 00:50:54;;;;;;;;;;;;;;;10.00;100.00;95335.72;5114327;28;1035;-56
2023/10/18 00:53:23;;;;;;;;;;;;;;;10.07;100.00;95338.59;5114648;28;964;-56
2023/10/18 00:55:57;;;;;;;;;;;;;;;10.15;100.00;95339.50;5114377;28;999;-56
2023/10/18 00:58:23;;;;;;;;;;;;;;;10.15;100.00;95347.53;5112592;28;1226;-56
2023/10/18 01:00:52;;;;;;;;;;;;;;;10.24;100.00;95343.06;5114168;28;1985;-56
2023/10/18 01:03:32;;;;;;;;;;;;;;;10.21;100.00;95347.91;5113944;28;1039;-56
2023/10/18 01:06:03;;;;;;;;;;;;;;;10.21;100.00;95343.41;5114009;28;1075;-56
2023/10/18 01:08:30;;;;;;;;;;;;;;;10.19;100.00;95341.84;5113739;28;1173;-56
2023/10/18 01:11:03;;;;;;;;;;;;;;;10.18;100.00;95338.34;5114245;28;968;-56
2023/10/18 01:13:30;;;;;;;;;;;;;;;10.19;100.00;95345.41;5113868;28;1019;-56
2023/10/18 01:15:56;;;;;;;;;;;;;;;10.19;100.00;95337.38;5114068;28;1031;-56
2023/10/18 01:18:22;;;;;;;;;;;;;;;10.20;100.00;95344.38;5113837;28;1019;-56
2023/10/18 01:20:49;;;;;;;;;;;;;;;10.24;100.00;95340.41;5113819;28;1985;-56
2023/10/18 01:23:15;;;;;;;;;;;;;;;10.27;100.00;95333.94;5113995;28;1039;-56
2023/10/18 01:25:41;;;;;;;;;;;;;;;10.28;100.00;95339.13;5114085;28;999;-56
2023/10/18 01:28:07;;;;;;;;;;;;;;;10.27;100.00;95340.09;5113960;28;972;-56
2023/10/18 01:30:33;;;;;;;;;;;;;;;10.35;100.00;95334.03;5113687;28;1059;-56
2023/10/18 01:33:01;;;;;;;;;;;;;;;10.34;100.00;95327.00;5114053;28;984;-56
2023/10/18 01:35:26;;;;;;;;;;;;;;;10.28;100.00;95323.09;5113715;28;1015;-56
2023/10/18 01:37:53;;;;;;;;;;;;;;;10.18;100.00;95326.84;5113654;28;1020;-56
2023/10/18 01:42:58;;;;;;;;;;;;;;;10.05;100.00;95320.03;5114017;28;1024;-56
2023/10/18 01:45:29;;;;;;;;;;;;;;;10.01;100.00;95331.19;5112340;28;1016;-56
2023/10/18 01:47:57;;;;;;;;;;;;;;;10.11;100.00;95331.94;5113519;28;1040;-56
2023/10/18 01:50:23;;;;;;;;;;;;;;;10.18;100.00;95327.66;5113700;28;1008;-56
2023/10/18 01:52:50;;;;;;;;;;;;;;;10.18;100.00;95326.84;5113623;28;1055;-57
2023/10/18 01:55:17;;;;;;;;;;;;;;;10.22;100.00;95328.19;5113469;28;1073;-57
2023/10/18 01:57:44;;;;;;;;;;;;;;;10.20;100.00;95331.03;5114286;28;1088;-57
2023/10/18 02:00:25;;;;;;;;;;;;;;;10.22;100.00;95325.53;5117328;28;1910;-57
2023/10/18 02:02:51;;;;;;;;;;;;;;;10.15;100.00;95328.81;5117655;28;1008;-57
2023/10/18 02:05:18;;;;;;;;;;;;;;;10.09;100.00;95328.59;5117220;27;1091;-57
2023/10/18 02:07:47;;;;;;;;;;;;;;;10.09;100.00;95333.94;5117403;28;1185;-57
2023/10/18 02:10:21;;;;;;;;;;;;;;;10.17;100.00;95331.34;5117142;28;1083;-57
2023/10/18 02:12:47;;;;;;;;;;;;;;;10.15;100.00;95334.16;5117489;28;972;-57
2023/10/18 02:15:12;;;;;;;;;;;;;;;10.15;100.00;95333.34;5117030;28;1036;-57
2023/10/18 02:17:40;;;;;;;;;;;;;;;10.06;100.00;95331.59;5117012;28;1099;-57
2023/10/18 02:20:14;;;;;;;;;;;;;;;10.05;100.00;95327.22;5117163;28;1910;-57
2023/10/18 02:22:42;;;;;;;;;;;;;;;10.08;100.00;95327.75;5117009;28;1036;-57
2023/10/18 02:25:09;;;;;;;;;;;;;;;10.12;100.00;95325.63;5116982;28;1047;-57
2023/10/18 02:27:36;;;;;;;;;;;;;;;10.14;100.00;95329.81;5117146;28;1040;-57
2023/10/18 02:30:03;;;;;;;;;;;;;;;10.14;100.00;95327.13;5116820;28;1012;-56
2023/10/18 02:32:32;;;;;;;;;;;;;;;10.07;100.00;95322.56;5116734;28;1079;-57
2023/10/18 02:34:58;;;;;;;;;;;;;;;10.12;100.00;95325.63;5116726;28;1079;-57
2023/10/18 02:37:25;;;;;;;;;;;;;;;10.19;100.00;95329.38;5116917;28;1185;-57
2023/10/18 02:40:07;;;;;;;;;;;;;;;10.19;100.00;95329.38;5116607;28;2081;-57
2023/10/18 02:42:33;;;;;;;;;;;;;;;10.18;100.00;95332.19;5116564;28;913;-56
2023/10/18 02:44:59;;;;;;;;;;;;;;;10.20;100.00;95333.69;5116778;28;1031;-57
2023/10/18 02:47:26;;;;;;;;;;;;;;;10.24;100.00;95323.53;5116442;28;1020;-57
2023/10/18 02:49:52;;;;;;;;;;;;;;;10.21;100.00;95335.38;5116644;28;1036;-57
2023/10/18 02:52:18;;;;;;;;;;;;;;;10.20;100.00;95330.19;5116468;28;1058;-57
2023/10/18 02:54:48;;;;;;;;;;;;;;;10.18;100.00;95324.16;5116716;28;1254;-56
2023/10/18 02:57:14;;;;;;;;;;;;;;;10.16;100.00;95333.16;5116638;28;1194;-56
2023/10/18 02:59:41;;;;;;;;;;;;;;;10.22;100.00;95334.38;5116447;28;1992;-56
2023/10/18 03:02:22;;;;;;;;;;;;;;;10.25;100.00;95334.06;5116223;28;1019;-56
2023/10/18 03:04:48;;;;;;;;;;;;;;;10.28;100.00;95331.13;5116532;28;1052;-55
2023/10/18 03:07:15;;;;;;;;;;;;;;;10.31;100.00;95333.50;5116037;28;1204;-56
2023/10/18 03:09:41;;;;;;;;;;;;;;;10.27;100.00;95332.09;5115561;28;1007;-56
2023/10/18 03:12:13;;;;;;;;;;;;;;;10.29;100.00;95329.28;5116195;28;1055;-55
2023/10/18 03:14:39;;;;;;;;;;;;;;;10.26;100.00;95341.13;5116243;28;976;-57
2023/10/18 03:17:19;;;;;;;;;;;;;;;10.32;100.00;95332.50;5116229;28;1078;-56
2023/10/18 03:19:49;;;;;;;;;;;;;;;10.34;100.00;95332.34;5115870;27;1961;-56
2023/10/18 03:22:19;;;;;;;;;;;;;;;10.28;100.00;95333.78;5116070;27;1055;-56
2023/10/18 03:24:46;;;;;;;;;;;;;;;10.31;100.00;95330.81;5116008;28;1030;-55
2023/10/18 03:27:12;;;;;;;;;;;;;;;10.34;100.00;95330.50;5115823;28;1032;-55
2023/10/18 03:29:38;;;;;;;;;;;;;;;10.38;100.00;95327.50;5115601;28;1037;-55
2023/10/18 03:32:08;;;;;;;;;;;;;;;10.31;100.00;95317.44;5115643;28;1039;-54
2023/10/18 03:34:41;;;;;;;;;;;;;;;10.29;100.00;95318.56;5116050;28;1015;-55
2023/10/18 03:37:18;;;;;;;;;;;;;;;10.24;100.00;95318.19;5114386;28;1024;-55
2023/10/18 03:39:47;;;;;;;;;;;;;;;10.06;100.00;95307.53;5115614;28;1913;-55
2023/10/18 03:42:26;;;;;;;;;;;;;;;10.05;100.00;95308.53;5114307;28;1055;-54
2023/10/18 03:44:52;;;;;;;;;;;;;;;10.19;100.00;95310.66;5115693;28;1044;-55
2023/10/18 03:47:24;;;;;;;;;;;;;;;10.24;100.00;95311.00;5115163;28;1055;-55
2023/10/18 03:49:53;;;;;;;;;;;;;;;10.28;100.00;95319.56;5115413;28;972;-55
2023/10/18 03:52:21;;;;;;;;;;;;;;;10.34;100.00;95319.00;5115357;28;1011;-55
2023/10/18 03:57:28;;;;;;;;;;;;;;;10.25;100.00;95304.69;5115237;27;1095;-56
2023/10/18 04:00:22;;;;;;;;;;;;;;;10.23;100.00;95304.00;5114982;28;1914;-56
2023/10/18 04:02:46;;;;;;;;;;;;;;;10.30;100.00;95307.78;5114917;28;1087;-55
2023/10/18 04:08:20;;;;;;;;;;;;;;;10.38;100.00;95303.47;5051834;28;1298;-55
2023/10/18 04:11:07;;;;;;;;;;;;;;;10.34;100.00;95301.13;5052003;28;1127;-55
2023/10/18 04:13:35;;;;;;;;;;;;;;;10.25;100.00;95311.88;5079056;28;1071;-56
2023/10/18 04:16:10;;;;;;;;;;;;;;;10.15;100.00;95311.97;5094641;28;1003;-55
2023/10/18 04:18:36;;;;;;;;;;;;;;;10.13;100.00;95308.56;5094592;28;973;-55
2023/10/18 04:21:06;;;;;;;;;;;;;;;10.10;100.00;95304.41;5093343;28;1905;-55
2023/10/18 04:23:34;;;;;;;;;;;;;;;10.19;100.00;95299.97;5094362;28;1072;-55
2023/10/18 04:26:18;;;;;;;;;;;;;;;10.22;100.00;95307.66;5094152;28;1536;-55
2023/10/18 04:28:45;;;;;;;;;;;;;;;10.15;100.00;95301.28;5094099;28;1088;-55
2023/10/18 04:31:21;;;;;;;;;;;;;;;10.14;100.00;95310.28;5094167;28;1062;-55
2023/10/18 04:33:54;;;;;;;;;;;;;;;10.21;100.00;95305.16;5094024;28;1072;-55
2023/10/18 04:36:23;;;;;;;;;;;;;;;10.20;100.00;95300.78;5094128;28;1043;-55
2023/10/18 04:38:51;;;;;;;;;;;;;;;10.20;100.00;95306.97;5094158;28;1910;-56
2023/10/18 04:43:49;;;;;;;;;;;;;;;10.22;100.00;95306.81;5094155;28;1058;-55
2023/10/18 04:46:15;;;;;;;;;;;;;;;10.25;100.00;95311.88;5094010;28;989;-56
2023/10/18 04:51:26;;;;;;;;;;;;;;;10.35;100.00;95309.97;5094046;28;1003;-56
2023/10/18 04:53:54;;;;;;;;;;;;;;;10.38;100.00;95309.66;5093832;28;826;-56
2023/10/18 04:56:20;;;;;;;;;;;;;;;10.39;100.00;95305.16;5093553;28;1052;-55
2023/10/18 04:58:46;;;;;;;;;;;;;;;10.35;100.00;95317.97;5109337;28;1905;-55
2023/10/18 05:01:13;;;;;;;;;;;;;;;10.33;100.00;95318.13;5093636;28;996;-56
2023/10/18 05:03:44;;;;;;;;;;;;;;;10.31;100.00;95321.97;5126402;27;1036;-56
2023/10/18 05:06:11;;;;;;;;;;;;;;;10.29;100.00;95327.44;5093163;28;897;-56
2023/10/18 05:08:37;;;;;;;;;;;;;;;10.33;100.00;95319.97;5111389;28;1221;-56
2023/10/18 05:13:48;;;;;;;;;;;;;;;10.40;100.00;95330.91;5113999;28;991;-56
2023/10/18 05:16:16;;;;;;;;;;;;;;;10.40;100.00;95322.88;5113542;28;1031;-56
2023/10/18 05:18:44;;;;;;;;;;;;;;;10.47;100.00;95329.25;5113827;28;1064;-56
2023/10/18 05:21:10;;;;;;;;;;;;;;;10.48;100.00;95334.44;5113661;28;994;-56
2023/10/18 05:23:36;;;;;;;;;;;;;;;10.44;100.00;95332.25;5113582;28;1016;-56
2023/10/18 05:28:47;;;;;;;;;;;;;;;10.42;100.00;95337.75;5113877;28;1027;-56
2023/10/18 05:34:01;;;;;;;;;;;;;;;10.48;100.00;95352.34;5118118;28;1020;-56
2023/10/18 05:36:54;;;;;;;;;;;;;;;10.42;100.00;95351.13;5117941;28;996;-55
2023/10/18 05:42:13;;;;;;;;;;;;;;;10.45;100.00;95352.63;5118033;27;965;-56
2023/10/18 05:44:41;;;;;;;;;;;;;;;10.54;100.00;95357.06;5117594;28;1052;-56
2023/10/18 05:47:08;;;;;;;;;;;;;;;10.65;100.00;95372.00;5117851;28;975;-55
2023/10/18 05:49:40;;;;;;;;;;;;;;;10.67;100.00;95362.81;5117348;28;1079;-56
2023/10/18 05:54:44;;;;;;;;;;;;;;;10.75;100.00;95370.91;5117715;28;943;-56
2023/10/18 05:57:15;;;;;;;;;;;;;;;10.82;100.00;95373.78;5117233;28;1020;-56
2023/10/18 05:59:42;;;;;;;;;;;;;;;10.79;100.00;95371.44;5117237;28;1902;-56
2023/10/18 06:02:10;;;;;;;;;;;;;;;10.66;100.00;95371.84;5117421;28;1035;-56
2023/10/18 06:04:42;;;;;;;;;;;;;;;10.51;100.00;95373.41;5117440;28;980;-56
2023/10/18 06:07:12;;;;;;;;;;;;;;;10.55;100.00;95382.81;5117077;28;1149;-56
2023/10/18 06:09:48;;;;;;;;;;;;;;;10.61;100.00;95384.03;5117110;28;995;-56
2023/10/18 06:12:21;;;;;;;;;;;;;;;10.68;100.00;95385.06;5116974;28;1091;-56
2023/10/18 06:14:51;;;;;;;;;;;;;;;10.69;100.00;95376.88;5117202;28;1052;-56
2023/10/18 06:17:40;;;;;;;;;;;;;;;10.64;100.00;95383.69;5116858;28;1040;-56
2023/10/18 06:20:07;;;;;;;;;;;;;;;10.58;100.00;95379.81;5116561;28;1945;-56
2023/10/18 06:22:39;;;;;;;;;;;;;;;10.70;100.00;95389.28;5117003;28;1263;-56
2023/10/18 06:25:09;;;;;;;;;;;;;;;10.74;100.00;95379.94;5116979;28;961;-56
2023/10/18 06:27:41;;;;;;;;;;;;;;;10.74;100.00;95398.66;5117084;28;960;-56
2023/10/18 06:30:14;;;;;;;;;;;;;;;10.77;100.00;95383.28;5116861;28;1017;-56
2023/10/18 06:32:41;;;;;;;;;;;;;;;10.94;100.00;95391.25;5116931;28;1040;-55
2023/10/18 06:35:15;;;;;;;;;;;;;;;11.03;100.00;95385.97;5117310;28;1032;-57
2023/10/18 06:37:41;;;;;;;;;;;;;;;11.04;100.00;95391.16;5117308;28;971;-57
2023/10/18 06:40:40;;;;;;;;;;;;;;;11.13;100.00;95392.03;5116618;28;1905;-58
2023/10/18 06:43:06;;;;;;;;;;;;;;;11.02;100.00;95392.31;5114904;28;1011;-57
2023/10/18 06:45:36;;;;;;;;;;;;;;;10.96;100.00;95388.41;5116785;28;1000;-56
2023/10/18 06:48:03;;;;;;;;;;;;;;;11.09;100.00;95393.34;5116473;28;1078;-57
2023/10/18 06:50:30;;;;;;;;;;;;;;;11.04;100.00;95404.53;5116536;28;1032;-57
2023/10/18 06:52:58;;;;;;;;;;;;;;;11.09;100.00;95406.75;5116393;28;1032;-57
2023/10/18 06:55:41;;;;;;;;;;;;;;;11.13;100.00;95403.59;5116546;28;1048;-56
2023/10/18 06:58:14;;;;;;;;;;;;;;;11.17;100.00;95395.25;5116346;28;1277;-56
2023/10/18 07:00:43;;;;;;;;;;;;;;;11.26;100.00;95388.94;5116546;28;1976;-56
2023/10/18 07:03:24;;;;;;;;;;;;;;;11.19;100.00;95399.44;5116376;27;995;-56
2023/10/18 07:05:52;;;;;;;;;;;;;;;11.31;100.00;95403.53;5116287;28;956;-56
2023/10/18 07:08:25;;;;;;;;;;;;;;;11.40;100.00;95403.56;5115914;28;1216;-56
2023/10/18 07:10:57;;;;;;;;;;;;;;;11.41;100.00;95399.88;5116221;28;1023;-56
2023/10/18 07:13:38;;;;;;;;;;;;;;;11.47;100.00;95401.91;5116054;28;944;-56
2023/10/18 07:16:06;;;;;;;;;;;;;;;11.53;100.00;95403.94;5116309;28;999;-56
2023/10/18 07:18:35;;;;;;;;;;;;;;;11.63;100.00;95406.50;5114455;28;1036;-56
2023/10/18 07:21:05;;;;;;;;;;;;;;;11.73;100.00;95400.00;5116005;28;1979;-56
2023/10/18 07:23:36;;;;;;;;;;;;;;;11.67;100.00;95399.84;5115958;28;1035;-56
2023/10/18 07:26:03;;;;;;;;;;;;;;;11.74;100.00;95406.19;5115929;28;1028;-56
2023/10/18 07:28:29;;;;;;;;;;;;;;;11.73;100.00;95410.72;5114609;28;1052;-56
2023/10/18 07:30:55;;;;;;;;;;;;;;;11.67;100.00;95410.56;5115872;28;998;-56
2023/10/18 07:33:23;;;;;;;;;;;;;;;11.83;100.00;95407.09;5115337;28;1076;-56
2023/10/18 07:35:49;;;;;;;;;;;;;;;11.84;100.00;95420.31;5115726;28;984;-56
2023/10/18 07:38:25;;;;;;;;;;;;;;;11.84;100.00;95414.97;5115549;28;1014;-56
2023/10/18 07:40:54;;;;;;;;;;;;;;;11.91;100.00;95412.50;5115651;28;1970;-56
2023/10/18 07:43:20;;;;;;;;;;;;;;;11.95;99.07;95418.34;5115250;28;987;-56
2023/10/18 07:45:52;;;;;;;;;;;;;;;11.85;100.00;95416.63;5115177;28;1023;-56
2023/10/18 07:48:19;;;;;;;;;;;;;;;11.90;100.00;95416.19;5115410;28;976;-56
2023/10/18 07:50:51;;;;;;;;;;;;;;;11.75;100.00;95418.59;5115172;28;1044;-56
2023/10/18 07:53:20;;;;;;;;;;;;;;;11.81;100.00;95414.44;5115336;28;1035;-56
2023/10/18 07:55:48;;;;;;;;;;;;;;;11.88;100.00;95418.16;5115286;28;996;-56
2023/10/18 07:58:26;;;;;;;;;;;;;;;11.97;100.00;95419.03;5114674;28;1111;-56
2023/10/18 08:03:27;;;;;;;;;;;;;;;12.21;100.00;95413.72;5115168;28;1067;-56
2023/10/18 08:05:55;;;;;;;;;;;;;;;12.19;100.00;95415.75;5115004;28;969;-55
2023/10/18 08:08:24;;;;;;;;;;;;;;;12.14;99.95;95412.75;5114674;28;1216;-56
2023/10/18 08:10:53;;;;;;;;;;;;;;;12.24;98.49;95413.41;5114725;28;1032;-56
2023/10/18 08:13:25;;;;;;;;;;;;;;;12.21;100.00;95408.38;5113371;28;1079;-56
2023/10/18 08:15:56;;;;;;;;;;;;;;;12.23;95.87;95422.44;5115022;28;1060;-56
2023/10/18 08:18:39;;;;;;;;;;;;;;;12.36;97.14;95421.97;5114507;28;1959;-56
2023/10/18 08:21:08;;;;;;;;;;;;;;;12.34;96.67;95425.84;5114847;28;1997;-56
2023/10/18 08:23:35;;;;;;;;;;;;;;;12.34;96.21;95423.16;5114679;28;937;-56
2023/10/18 08:26:04;;;;;;;;;;;;;;;12.32;98.31;95422.47;5114452;28;1848;-56
2023/10/18 08:28:40;;;;;;;;;;;;;;;12.38;98.43;95425.31;5114711;28;960;-56
2023/10/18 08:31:26;;;;;;;;;;;;;;;12.43;99.05;95422.16;5114405;28;1028;-56
2023/10/18 08:33:54;;;;;;;;;;;;;;;12.45;94.31;95418.31;5114386;28;1023;-56
2023/10/18 08:36:29;;;;;;;;;;;;;;;12.67;94.82;95422.19;5114171;28;1134;-56
2023/10/18 08:38:56;;;;;;;;;;;;;;;12.83;95.33;95429.38;5113210;28;1988;-56
2023/10/18 08:41:25;;;;;;;;;;;;;;;12.93;95.79;95423.00;5114476;28;999;-56
2023/10/18 08:43:59;;;;;;;;;;;;;;;12.96;93.15;95430.72;5114212;28;1087;-56
2023/10/18 08:46:26;;;;;;;;;;;;;;;12.81;94.78;95427.88;5114049;28;1052;-56
2023/10/18 08:48:54;;;;;;;;;;;;;;;12.74;94.04;95426.88;5114364;28;980;-56
2023/10/18 08:51:23;;;;;;;;;;;;;;;12.67;92.72;95424.00;5114010;28;1027;-56
2023/10/18 08:53:50;;;;;;;;;;;;;;;12.77;89.75;95423.88;5114189;28;1047;-55
2023/10/18 08:56:17;;;;;;;;;;;;;;;12.75;87.79;95423.16;5114245;28;1031;-56
2023/10/18 08:58:47;;;;;;;;;;;;;;;12.96;89.05;95428.06;5113869;28;1239;-56
2023/10/18 09:01:14;;;;;;;;;;;;;;;12.94;91.91;95430.03;5113733;28;1905;-55
2023/10/18 09:03:40;;;;;;;;;;;;;;;13.02;91.54;95433.56;5114182;28;1036;-56
2023/10/18 09:06:06;;;;;;;;;;;;;;;13.18;91.72;95435.38;5113806;28;952;-56
2023/10/18 09:08:38;;;;;;;;;;;;;;;13.32;90.49;95439.25;5113850;28;1153;-55
2023/10/18 09:11:09;;;;;;;;;;;;;;;13.28;91.30;95436.03;5113846;28;908;-56
2023/10/18 09:13:41;;;;;;;;;;;;;;;13.14;88.33;95436.72;5114030;28;1000;-55
2023/10/18 09:16:11;;;;;;;;;;;;;;;13.17;89.09;95439.09;5114130;28;999;-55
2023/10/18 09:18:37;;;;;;;;;;;;;;;13.20;89.29;95437.91;5114232;28;1026;-56
2023/10/18 09:23:42;;;;;;;;;;;;;;;13.49;86.99;95442.75;5113830;28;964;-56
2023/10/18 09:26:13;;;;;;;;;;;;;;;13.37;83.68;95439.56;5113641;28;1048;-56
2023/10/18 09:28:42;;;;;;;;;;;;;;;13.41;82.97;95432.88;5113700;28;1027;-56
2023/10/18 09:31:10;;;;;;;;;;;;;;;13.69;84.05;95434.28;5113885;28;1015;-56
2023/10/18 09:33:48;;;;;;;;;;;;;;;13.68;87.97;95433.47;5113817;28;948;-56
2023/10/18 09:36:29;;;;;;;;;;;;;;;13.73;88.42;95432.91;5112422;28;990;-56
2023/10/18 09:38:56;;;;;;;;;;;;;;;13.58;88.85;95436.34;5113554;28;1992;-56
2023/10/18 09:41:22;;;;;;;;;;;;;;;13.54;90.17;95436.84;5113432;28;1032;-56
2023/10/18 09:43:49;;;;;;;;;;;;;;;13.60;86.96;95433.47;5113550;28;1025;-56
2023/10/18 09:46:15;;;;;;;;;;;;;;;13.57;89.53;95431.16;5113527;28;976;-56
2023/10/18 09:48:42;;;;;;;;;;;;;;;13.67;85.98;95432.59;5113763;28;972;-56
2023/10/18 09:51:09;;;;;;;;;;;;;;;13.74;87.31;95423.88;5113378;28;1088;-56
2023/10/18 09:53:35;;;;;;;;;;;;;;;13.77;87.81;95432.41;5113357;28;1032;-56
2023/10/18 09:56:03;;;;;;;;;;;;;;;13.64;86.76;95432.97;5113556;28;1068;-56
2023/10/18 09:58:33;;;;;;;;;;;;;;;13.69;86.04;95426.22;5113223;28;1242;-56
2023/10/18 10:01:13;;;;;;;;;;;;;;;13.61;85.99;95424.41;5113268;28;1910;-56
2023/10/18 10:03:51;;;;;;;;;;;;;;;13.56;87.75;95424.91;5113352;28;1044;-56
2023/10/18 10:06:19;;;;;;;;;;;;;;;13.63;86.17;95412.47;5113418;28;948;-56
2023/10/18 10:08:47;;;;;;;;;;;;;;;13.68;84.71;95411.97;5113492;28;1169;-56
2023/10/18 10:11:18;;;;;;;;;;;;;;;13.75;87.16;95415.59;5113285;28;961;-56
2023/10/18 10:13:45;;;;;;;;;;;;;;;13.67;86.23;95405.72;5113396;28;1046;-56
2023/10/18 10:16:13;;;;;;;;;;;;;;;13.59;86.71;95396.88;5113294;28;964;-56
2023/10/18 10:18:42;;;;;;;;;;;;;;;13.66;86.91;95396.00;5113986;28;988;-56
2023/10/18 10:21:11;;;;;;;;;;;;;;;13.75;86.95;95393.28;5117197;28;1891;-56
2023/10/18 10:23:41;;;;;;;;;;;;;;;13.84;85.24;95385.00;5117118;28;1067;-56
2023/10/18 10:26:11;;;;;;;;;;;;;;;13.85;87.53;95386.69;5117094;28;987;-55
2023/10/18 10:29:10;;;;;;;;;;;;;;;13.76;86.58;95384.22;5116820;28;999;-56
2023/10/18 10:31:54;;;;;;;;;;;;;;;13.81;87.61;95388.06;5116882;28;940;-56
2023/10/18 10:34:24;;;;;;;;;;;;;;;13.90;85.96;95375.41;5116832;28;972;-56
2023/10/18 10:36:51;;;;;;;;;;;;;;;14.00;84.80;95375.16;5116893;28;996;-56
2023/10/18 10:39:24;;;;;;;;;;;;;;;13.98;86.17;95369.13;5116615;27;1906;-56
2023/10/18 10:41:52;;;;;;;;;;;;;;;13.99;85.57;95366.28;5116546;28;1860;-56
2023/10/18 10:44:23;;;;;;;;;;;;;;;13.97;86.40;95367.47;5116475;28;984;-55
2023/10/18 10:46:50;;;;;;;;;;;;;;;13.96;84.50;95363.97;5116671;27;937;-56
2023/10/18 10:49:36;;;;;;;;;;;;;;;13.96;85.27;95360.41;5116329;28;1036;-56
2023/10/18 10:52:07;;;;;;;;;;;;;;;13.92;86.55;95364.47;5116316;28;1079;-56
2023/10/18 10:54:37;;;;;;;;;;;;;;;13.95;86.99;95380.25;5116389;28;1080;-56
2023/10/18 10:57:08;;;;;;;;;;;;;;;13.97;86.02;95380.91;5116234;28;1044;-56
2023/10/18 10:59:41;;;;;;;;;;;;;;;13.81;84.59;95381.81;5115842;28;1996;-56
2023/10/18 11:02:07;;;;;;;;;;;;;;;13.47;85.00;95380.31;5114792;28;1079;-56
2023/10/18 11:04:46;;;;;;;;;;;;;;;13.52;85.54;95374.41;5116241;28;968;-55
2023/10/18 11:07:21;;;;;;;;;;;;;;;13.53;87.42;95374.22;5116114;28;1216;-55
2023/10/18 11:09:47;;;;;;;;;;;;;;;13.76;86.44;95370.78;5116247;28;952;-56
2023/10/18 11:12:13;;;;;;;;;;;;;;;13.73;81.86;95369.25;5116130;28;965;-56
2023/10/18 11:14:42;;;;;;;;;;;;;;;13.75;84.05;95369.91;5115806;28;1047;-56
2023/10/18 11:19:41;;;;;;;;;;;;;;;13.86;84.00;95366.84;5116078;27;1987;-56
2023/10/18 11:22:07;;;;;;;;;;;;;;;13.84;85.81;95359.97;5115662;28;1028;-56
2023/10/18 11:24:34;;;;;;;;;;;;;;;13.74;86.66;95362.06;5115797;28;944;-56
2023/10/18 11:27:02;;;;;;;;;;;;;;;13.69;87.56;95364.44;5115524;28;1036;-56
2023/10/18 11:29:27;;;;;;;;;;;;;;;13.69;87.69;95359.88;5115116;27;1182;-56
2023/10/18 11:31:58;;;;;;;;;;;;;;;13.67;85.49;95361.91;5115595;28;1035;-56
2023/10/18 11:34:25;;;;;;;;;;;;;;;13.85;84.78;95356.28;5115687;28;1073;-56
2023/10/18 11:37:01;;;;;;;;;;;;;;;13.92;84.89;95353.72;5115618;28;1184;-56
2023/10/18 11:39:32;;;;;;;;;;;;;;;14.01;84.17;95366.09;5115582;28;1921;-56
2023/10/18 11:41:59;;;;;;;;;;;;;;;13.85;83.42;95362.50;5115594;28;1028;-55
2023/10/18 11:44:31;;;;;;;;;;;;;;;13.79;85.28;95365.91;5115545;28;1000;-56
2023/10/18 11:47:01;;;;;;;;;;;;;;;14.04;85.73;95358.53;5115577;28;940;-56
2023/10/18 11:49:35;;;;;;;;;;;;;;;14.14;85.33;95363.66;5115128;28;1032;-55
2023/10/18 11:52:01;;;;;;;;;;;;;;;14.27;83.70;95362.25;5115209;28;996;-56
2023/10/18 11:54:28;;;;;;;;;;;;;;;14.34;85.38;95363.19;5114986;28;999;-56
2023/10/18 11:56:56;;;;;;;;;;;;;;;14.35;86.35;95368.41;5115434;28;1082;-55
2023/10/18 11:59:25;;;;;;;;;;;;;;;14.31;84.18;95364.41;5114719;28;1930;-56
2023/10/18 12:01:55;;;;;;;;;;;;;;;14.50;82.80;95360.38;5114119;28;941;-56
2023/10/18 12:04:27;;;;;;;;;;;;;;;14.48;84.80;95361.59;5115010;28;960;-55
2023/10/18 12:06:54;;;;;;;;;;;;;;;14.52;86.02;95360.22;5114897;28;1153;-55
2023/10/18 12:11:46;;;;;;;;;;;;;;;14.61;81.28;95359.16;5115017;28;969;-55
2023/10/18 12:14:12;;;;;;;;;;;;;;;14.39;83.24;95345.50;5115018;28;999;-56
2023/10/18 12:16:41;;;;;;;;;;;;;;;14.58;82.04;95346.88;5114798;28;1020;-55
2023/10/18 12:19:10;;;;;;;;;;;;;;;14.71;82.34;95338.22;5114649;28;1956;-55
2023/10/18 12:21:37;;;;;;;;;;;;;;;14.99;83.25;95334.94;5114711;28;964;-55
2023/10/18 12:24:07;;;;;;;;;;;;;;;15.09;81.73;95330.09;5114614;28;1040;-56
2023/10/18 12:26:34;;;;;;;;;;;;;;;15.20;82.28;95339.59;5114505;28;1031;-55
2023/10/18 12:29:05;;;;;;;;;;;;;;;15.29;82.62;95348.41;5114699;28;984;-55
2023/10/18 12:31:38;;;;;;;;;;;;;;;15.35;81.47;95335.03;5114449;28;1032;-56
2023/10/18 12:34:04;;;;;;;;;;;;;;;15.27;81.54;95331.59;5114793;28;1015;-55
2023/10/18 12:36:49;;;;;;;;;;;;;;;15.26;82.31;95333.44;5114606;28;1020;-55
2023/10/18 12:39:20;;;;;;;;;;;;;;;15.27;82.06;95343.22;5114443;28;1989;-55
2023/10/18 12:41:52;;;;;;;;;;;;;;;15.28;81.22;95349.44;5113727;28;1028;-55
2023/10/18 12:44:18;;;;;;;;;;;;;;;15.21;80.75;95338.56;5114281;28;905;-55
2023/10/18 12:46:45;;;;;;;;;;;;;;;15.13;81.96;95334.09;5114245;28;1012;-55
2023/10/18 12:49:11;;;;;;;;;;;;;;;15.10;81.82;95334.47;5114411;28;1004;-55
2023/10/18 12:51:42;;;;;;;;;;;;;;;15.16;82.35;95328.34;5114178;28;1036;-55
2023/10/18 12:54:10;;;;;;;;;;;;;;;15.12;82.29;95337.81;5114511;28;1033;-55
2023/10/18 12:56:43;;;;;;;;;;;;;;;15.10;82.06;95330.94;5114396;28;956;-55
2023/10/18 13:04:06;;;;;;;;;;;;;;;14.91;83.24;95343.06;5114232;28;1015;-55
2023/10/18 13:06:42;;;;;;;;;;;;;;;14.98;82.55;95339.47;5114030;28;1181;-55
2023/10/18 13:09:29;;;;;;;;;;;;;;;14.98;82.37;95334.06;5114008;28;946;-55
2023/10/18 13:12:07;;;;;;;;;;;;;;;15.10;83.57;95326.41;5113955;28;1039;-55
2023/10/18 13:14:34;;;;;;;;;;;;;;;15.21;83.51;95323.25;5113882;28;1119;-55
2023/10/18 13:17:03;;;;;;;;;;;;;;;15.29;83.85;95321.47;5113825;28;1036;-55
2023/10/18 13:19:29;;;;;;;;;;;;;;;15.30;82.45;95323.97;5113814;28;1906;-55
2023/10/18 13:21:55;;;;;;;;;;;;;;;15.21;79.68;95319.69;5114100;28;1000;-55
2023/10/18 13:26:54;;;;;;;;;;;;;;;15.00;82.53;95307.78;5113725;28;1047;-55
2023/10/18 13:31:49;;;;;;;;;;;;;;;15.01;82.77;95312.19;5114060;28;1020;-56
2023/10/18 13:34:21;;;;;;;;;;;;;;;15.07;81.54;95307.91;5113897;28;1038;-56
2023/10/18 13:36:47;;;;;;;;;;;;;;;15.24;81.42;95311.25;5113717;28;1024;-57
2023/10/18 13:39:17;;;;;;;;;;;;;;;15.40;80.06;95310.22;5113444;28;2000;-56
2023/10/18 13:41:46;;;;;;;;;;;;;;;15.50;79.29;95310.78;5113572;28;1047;-56
2023/10/18 13:44:13;;;;;;;;;;;;;;;15.38;79.18;95307.69;5113845;28;1014;-57
2023/10/18 13:46:39;;;;;;;;;;;;;;;15.19;78.84;95300.19;5113642;28;964;-56
2023/10/18 13:49:08;;;;;;;;;;;;;;;15.23;80.57;95304.19;5113556;28;1017;-57
2023/10/18 13:51:37;;;;;;;;;;;;;;;15.33;82.46;95302.06;5113485;28;1018;-57
2023/10/18 13:54:04;;;;;;;;;;;;;;;15.30;78.79;95307.81;5116937;28;972;-57
2023/10/18 13:56:30;;;;;;;;;;;;;;;15.27;78.90;95304.66;5117425;28;1099;-56